TAF KMKG
AMD KMKG 082202Z 0822/0918 02005KT P6SM -SN BKN020 OVC029 FM090100 00000KT P6SM OVC035 FM090600 12006KT P6SM OVC070 FM091500 14013KT P6SM OVC120=
METAR KMKG
WC KMKG
WS KMKG
WV KMKG